createdAt,value
2023-04-29T00:00:14.512Z,33
2023-04-29T00:02:43.022Z,25
2023-04-29T00:03:57.188Z,23
2023-04-29T00:05:11.308Z,23
2023-04-29T00:06:25.286Z,21
2023-04-29T00:08:53.523Z,25
2023-04-29T00:10:07.684Z,25
2023-04-29T00:11:21.652Z,26
2023-04-29T00:13:49.978Z,25
2023-04-29T00:15:04.200Z,23
2023-04-29T00:16:18.250Z,25
2023-04-29T00:18:46.524Z,22
2023-04-29T00:20:00.618Z,22
2023-04-29T00:21:14.738Z,23
2023-04-29T00:23:43.029Z,22
2023-04-29T00:24:57.160Z,22
2023-04-29T00:26:11.325Z,22
2023-04-29T00:28:39.550Z,23
2023-04-29T00:29:54.116Z,24
2023-04-29T00:31:07.964Z,23
2023-04-29T00:32:21.985Z,22
2023-04-29T00:34:50.202Z,25
2023-04-29T00:36:04.434Z,25
2023-04-29T00:37:18.608Z,25
2023-04-29T00:39:46.754Z,23
2023-04-29T00:41:00.887Z,23
2023-04-29T00:42:15.047Z,23
2023-04-29T00:44:43.306Z,22
2023-04-29T00:45:57.454Z,24
2023-04-29T00:47:11.569Z,23
2023-04-29T00:48:25.709Z,23
2023-04-29T00:50:54.020Z,23
2023-04-29T00:52:08.155Z,24
2023-04-29T00:53:22.259Z,21
2023-04-29T00:55:50.463Z,22
2023-04-29T00:57:04.682Z,23
2023-04-29T00:58:18.775Z,25
2023-04-29T00:59:32.963Z,23
2023-04-29T01:00:47.106Z,23
2023-04-29T01:02:01.270Z,23
2023-04-29T01:03:15.589Z,21
2023-04-29T01:05:43.666Z,23
2023-04-29T01:06:57.698Z,22
2023-04-29T01:08:11.817Z,22
2023-04-29T01:10:40.066Z,22
2023-04-29T01:11:54.236Z,20
2023-04-29T01:13:08.369Z,21
2023-04-29T01:14:22.512Z,20
2023-04-29T01:16:50.724Z,21
2023-04-29T01:18:05.012Z,20
2023-04-29T01:19:19.021Z,21
2023-04-29T01:21:47.348Z,21
2023-04-29T01:23:01.390Z,21
2023-04-29T01:24:15.567Z,20
2023-04-29T01:26:43.891Z,21
2023-04-29T01:27:57.965Z,22
2023-04-29T01:29:12.084Z,20
2023-04-29T01:30:27.067Z,19
2023-04-29T01:31:40.381Z,21
2023-04-29T01:32:54.559Z,20
2023-04-29T01:34:08.661Z,22
2023-04-29T01:35:22.767Z,21
2023-04-29T01:37:50.997Z,20
2023-04-29T01:39:05.183Z,21
2023-04-29T01:40:19.305Z,18
2023-04-29T01:42:47.564Z,19
2023-04-29T01:44:01.666Z,19
2023-04-29T01:45:15.855Z,20
2023-04-29T01:47:44.181Z,20
2023-04-29T01:48:58.226Z,21
2023-04-29T01:50:12.350Z,23
2023-04-29T01:52:40.580Z,21
2023-04-29T01:53:54.844Z,20
2023-04-29T01:55:08.902Z,22
2023-04-29T01:56:23.102Z,21
2023-04-29T01:58:51.311Z,19
2023-04-29T02:00:05.521Z,19
2023-04-29T02:01:19.711Z,21
2023-04-29T02:03:47.985Z,23
2023-04-29T02:05:02.037Z,20
2023-04-29T02:06:16.099Z,21
2023-04-29T02:08:44.394Z,21
2023-04-29T02:09:58.508Z,22
2023-04-29T02:11:12.618Z,25
2023-04-29T02:13:40.854Z,25
2023-04-29T02:14:55.081Z,24
2023-04-29T02:16:09.201Z,24
2023-04-29T02:17:23.453Z,25
2023-04-29T02:19:51.722Z,28
2023-04-29T02:21:05.776Z,26
2023-04-29T02:22:19.911Z,24
2023-04-29T02:24:48.078Z,25
2023-04-29T02:26:02.214Z,25
2023-04-29T02:27:16.475Z,25
2023-04-29T02:29:44.639Z,28
2023-04-29T02:30:58.776Z,24
2023-04-29T02:32:12.970Z,26
2023-04-29T02:34:41.129Z,29
2023-04-29T02:35:55.318Z,26
2023-04-29T02:37:09.468Z,28
2023-04-29T02:38:23.611Z,27
2023-04-29T02:40:51.888Z,30
2023-04-29T02:42:06.038Z,29
2023-04-29T02:43:20.084Z,32
2023-04-29T02:45:48.440Z,33
2023-04-29T02:47:02.515Z,34
2023-04-29T02:48:16.705Z,34
2023-04-29T02:50:44.976Z,37
2023-04-29T02:51:59.052Z,38
2023-04-29T02:53:13.261Z,36
2023-04-29T02:55:41.416Z,38
2023-04-29T02:56:55.587Z,43
2023-04-29T02:58:09.671Z,38
2023-04-29T02:59:23.806Z,37
2023-04-29T03:01:52.114Z,41
2023-04-29T03:03:06.356Z,43
2023-04-29T03:04:20.459Z,42
2023-04-29T03:06:48.648Z,44
2023-04-29T03:08:02.821Z,43
2023-04-29T03:09:16.941Z,42
2023-04-29T03:11:45.240Z,45
2023-04-29T03:12:59.372Z,46
2023-04-29T03:14:13.425Z,47
2023-04-29T03:16:41.955Z,49
2023-04-29T03:17:55.865Z,50
2023-04-29T03:19:09.950Z,51
2023-04-29T03:20:24.187Z,51
2023-04-29T03:22:52.349Z,48
2023-04-29T03:24:06.515Z,49
2023-04-29T03:25:20.622Z,50
2023-04-29T03:27:48.884Z,52
2023-04-29T03:29:03.058Z,50
2023-04-29T03:30:17.200Z,50
2023-04-29T03:32:45.537Z,56
2023-04-29T03:33:59.612Z,54
2023-04-29T03:35:15.767Z,56
2023-04-29T03:37:42.016Z,59
2023-04-29T03:38:56.074Z,51
2023-04-29T03:40:10.227Z,52
2023-04-29T03:41:24.446Z,52
2023-04-29T03:43:52.620Z,55
2023-04-29T03:45:06.846Z,54
2023-04-29T03:46:20.899Z,55
2023-04-29T03:48:49.134Z,52
2023-04-29T03:50:03.390Z,52
2023-04-29T03:51:17.436Z,53
2023-04-29T03:53:45.683Z,53
2023-04-29T03:54:59.840Z,57
2023-04-29T03:56:14.118Z,58
2023-04-29T03:58:42.209Z,59
2023-04-29T03:59:56.375Z,66
2023-04-29T04:01:10.469Z,62
2023-04-29T04:02:24.867Z,64
2023-04-29T04:04:53.059Z,64
2023-04-29T04:06:07.022Z,69
2023-04-29T04:07:21.127Z,78
2023-04-29T04:09:49.441Z,75
2023-04-29T04:11:03.779Z,76
2023-04-29T04:12:17.677Z,75
2023-04-29T04:14:45.933Z,85
2023-04-29T04:16:00.189Z,85
2023-04-29T04:17:14.214Z,96
2023-04-29T04:19:42.466Z,94
2023-04-29T04:20:56.618Z,109
2023-04-29T04:22:12.325Z,102
2023-04-29T04:23:24.898Z,111
2023-04-29T04:25:53.165Z,108
2023-04-29T04:27:07.311Z,120
2023-04-29T04:28:21.381Z,116
2023-04-29T04:30:49.692Z,116
2023-04-29T04:32:03.836Z,130
2023-04-29T04:33:17.945Z,123
2023-04-29T04:35:46.222Z,120
2023-04-29T04:37:00.400Z,132
2023-04-29T04:38:14.558Z,133
2023-04-29T04:40:42.857Z,146
2023-04-29T04:41:56.883Z,121
2023-04-29T04:43:10.970Z,118
2023-04-29T04:44:25.430Z,111
2023-04-29T04:46:53.436Z,122
2023-04-29T04:48:07.596Z,119
2023-04-29T04:49:21.643Z,125
2023-04-29T04:51:49.944Z,142
2023-04-29T04:53:04.160Z,139
2023-04-29T04:54:18.188Z,117
2023-04-29T04:56:46.475Z,141
2023-04-29T04:58:00.576Z,139
2023-04-29T04:59:14.793Z,136
2023-04-29T05:01:43.129Z,154
2023-04-29T05:02:57.226Z,160
2023-04-29T05:04:11.374Z,168
2023-04-29T05:05:25.496Z,171
2023-04-29T05:07:53.657Z,149
2023-04-29T05:09:07.815Z,139
2023-04-29T05:10:21.930Z,141
2023-04-29T05:12:50.206Z,133
2023-04-29T05:14:04.377Z,117
2023-04-29T05:15:18.452Z,114
2023-04-29T05:17:46.759Z,127
2023-04-29T05:19:00.829Z,121
2023-04-29T05:20:14.997Z,118
2023-04-29T05:22:43.249Z,133
2023-04-29T05:23:57.385Z,144
2023-04-29T05:25:11.516Z,136
2023-04-29T05:27:39.768Z,148
2023-04-29T05:28:53.942Z,127
2023-04-29T05:30:08.066Z,137
2023-04-29T05:31:22.248Z,136
2023-04-29T05:33:50.451Z,138
2023-04-29T05:35:07.188Z,145
2023-04-29T05:36:18.751Z,129
2023-04-29T05:38:46.989Z,133
2023-04-29T05:40:01.124Z,129
2023-04-29T05:41:15.324Z,134
2023-04-29T05:43:43.507Z,140
2023-04-29T05:44:57.661Z,138
2023-04-29T05:46:11.820Z,146
2023-04-29T05:48:40.051Z,135
2023-04-29T05:49:54.578Z,129
2023-04-29T05:51:08.325Z,115
2023-04-29T05:52:22.537Z,113
2023-04-29T05:54:50.692Z,104
2023-04-29T05:56:04.973Z,110
2023-04-29T05:57:18.988Z,114
2023-04-29T05:59:47.242Z,102
2023-04-29T06:01:01.385Z,101
2023-04-29T06:02:15.539Z,104
2023-04-29T06:04:44.061Z,97
2023-04-29T06:05:58.217Z,91
2023-04-29T06:07:12.088Z,96
2023-04-29T06:08:26.204Z,102
2023-04-29T06:09:40.280Z,95
2023-04-29T06:10:54.461Z,98
2023-04-29T06:12:08.654Z,91
2023-04-29T06:13:22.779Z,99
2023-04-29T06:15:50.973Z,98
2023-04-29T06:17:05.199Z,94
2023-04-29T06:18:19.240Z,101
2023-04-29T06:20:47.538Z,93
2023-04-29T06:22:01.632Z,81
2023-04-29T06:23:16.110Z,79
2023-04-29T06:25:44.077Z,84
2023-04-29T06:26:58.187Z,88
2023-04-29T06:28:12.299Z,76
2023-04-29T06:30:40.587Z,84
2023-04-29T06:31:54.745Z,82
2023-04-29T06:33:08.898Z,85
2023-04-29T06:34:22.977Z,84
2023-04-29T06:36:51.260Z,82
2023-04-29T06:38:05.439Z,85
2023-04-29T06:39:19.587Z,86
2023-04-29T06:41:47.792Z,84
2023-04-29T06:43:01.881Z,90
2023-04-29T06:44:16.043Z,90
2023-04-29T06:46:44.524Z,98
2023-04-29T06:47:58.565Z,91
2023-04-29T06:49:12.675Z,95
2023-04-29T06:51:40.830Z,91
2023-04-29T06:52:54.975Z,98
2023-04-29T06:54:09.116Z,85
2023-04-29T06:55:23.281Z,87
2023-04-29T06:57:59.691Z,83
2023-04-29T06:59:13.868Z,84
2023-04-29T07:01:44.589Z,81
2023-04-29T07:02:56.307Z,86
2023-04-29T07:04:10.386Z,86
2023-04-29T07:05:24.586Z,83
2023-04-29T07:07:52.849Z,78
2023-04-29T07:09:06.975Z,78
2023-04-29T07:10:21.025Z,85
2023-04-29T07:12:49.295Z,81
2023-04-29T07:14:03.463Z,74
2023-04-29T07:15:17.563Z,70
2023-04-29T07:17:45.919Z,66
2023-04-29T07:18:59.998Z,63
2023-04-29T07:20:14.117Z,61
2023-04-29T07:22:42.391Z,73
2023-04-29T07:23:56.491Z,76
2023-04-29T07:25:10.616Z,73
2023-04-29T07:26:24.853Z,75
2023-04-29T07:28:53.008Z,64
2023-04-29T07:30:07.236Z,66
2023-04-29T07:31:21.312Z,55
2023-04-29T07:33:49.569Z,66
2023-04-29T07:35:03.765Z,67
2023-04-29T07:36:17.836Z,56
2023-04-29T07:38:46.245Z,57
2023-04-29T07:40:00.212Z,53
2023-04-29T07:41:14.456Z,55
2023-04-29T07:43:42.709Z,53
2023-04-29T07:44:56.744Z,56
2023-04-29T07:46:11.012Z,54
2023-04-29T07:47:25.091Z,53
2023-04-29T07:49:53.274Z,56
2023-04-29T07:51:07.420Z,52
2023-04-29T07:52:21.529Z,53
2023-04-29T07:54:49.839Z,50
2023-04-29T07:56:04.054Z,47
2023-04-29T07:57:18.093Z,54
2023-04-29T07:59:46.415Z,51
2023-04-29T08:01:00.449Z,49
2023-04-29T08:02:14.746Z,46
2023-04-29T08:04:43.232Z,58
2023-04-29T08:05:57.034Z,51
2023-04-29T08:07:11.221Z,52
2023-04-29T08:08:25.385Z,53
2023-04-29T08:10:53.601Z,55
2023-04-29T08:12:07.688Z,53
2023-04-29T08:13:21.824Z,57
2023-04-29T08:15:50.277Z,56
2023-04-29T08:17:04.271Z,54
2023-04-29T08:18:18.362Z,55
2023-04-29T08:20:46.668Z,54
2023-04-29T08:22:00.714Z,54
2023-04-29T08:23:14.887Z,56
2023-04-29T08:25:43.226Z,52
2023-04-29T08:26:57.267Z,53
2023-04-29T08:28:11.397Z,54
2023-04-29T08:29:25.621Z,53
2023-04-29T08:31:54.032Z,54
2023-04-29T08:33:07.988Z,58
2023-04-29T08:34:22.090Z,52
2023-04-29T08:36:50.341Z,54
2023-04-29T08:38:04.490Z,50
2023-04-29T08:39:18.617Z,50
2023-04-29T08:41:47.167Z,55
2023-04-29T08:43:01.002Z,54
2023-04-29T08:44:15.190Z,50
2023-04-29T08:46:43.490Z,52
2023-04-29T08:47:57.658Z,52
2023-04-29T08:49:11.665Z,49
2023-04-29T08:51:39.923Z,49
2023-04-29T08:52:54.073Z,49
2023-04-29T08:54:08.207Z,50
2023-04-29T08:55:22.453Z,46
2023-04-29T08:57:50.587Z,51
2023-04-29T08:59:04.854Z,47
2023-04-29T09:00:18.898Z,51
2023-04-29T09:02:47.207Z,47
2023-04-29T09:04:01.471Z,51
2023-04-29T09:05:15.439Z,54
2023-04-29T09:07:43.698Z,54
2023-04-29T09:08:57.805Z,51
2023-04-29T09:10:11.961Z,47
2023-04-29T09:12:40.209Z,52
2023-04-29T09:13:54.348Z,49
2023-04-29T09:15:08.459Z,45
2023-04-29T09:16:22.650Z,46
2023-04-29T09:18:50.851Z,47
2023-04-29T09:20:05.107Z,46
2023-04-29T09:21:21.772Z,40
2023-04-29T09:23:47.423Z,40
2023-04-29T09:25:01.544Z,45
2023-04-29T09:26:15.791Z,43
2023-04-29T09:28:44.061Z,41
2023-04-29T09:29:58.063Z,38
2023-04-29T09:31:12.265Z,43
2023-04-29T09:33:40.464Z,41
2023-04-29T09:34:54.806Z,39
2023-04-29T09:36:08.864Z,38
2023-04-29T09:37:22.917Z,39
2023-04-29T09:39:51.115Z,34
2023-04-29T09:41:05.450Z,36
2023-04-29T09:42:19.464Z,38
2023-04-29T09:44:47.665Z,38
2023-04-29T09:46:01.863Z,33
2023-04-29T09:47:15.963Z,34
2023-04-29T09:49:44.283Z,34
2023-04-29T09:50:58.402Z,33
2023-04-29T09:52:12.505Z,33
2023-04-29T09:54:40.728Z,35
2023-04-29T09:55:54.909Z,33
2023-04-29T09:57:09.010Z,30
2023-04-29T09:58:23.157Z,29
2023-04-29T10:00:51.387Z,29
2023-04-29T10:02:05.615Z,33
2023-04-29T10:03:19.812Z,34
2023-04-29T10:05:47.946Z,38
2023-04-29T10:07:02.058Z,36
2023-04-29T10:08:16.211Z,38
2023-04-29T10:10:44.490Z,40
2023-04-29T10:11:58.594Z,44
2023-04-29T10:13:12.816Z,42
2023-04-29T10:15:41.018Z,41
2023-04-29T10:16:55.156Z,42
2023-04-29T10:18:09.296Z,42
2023-04-29T10:19:23.400Z,46
2023-04-29T10:21:51.873Z,43
2023-04-29T10:23:05.804Z,44
2023-04-29T10:24:19.936Z,41
2023-04-29T10:26:48.198Z,39
2023-04-29T10:28:02.321Z,44
2023-04-29T10:29:16.505Z,45
2023-04-29T10:31:44.799Z,47
2023-04-29T10:33:01.034Z,43
2023-04-29T10:34:13.000Z,45
2023-04-29T10:35:27.141Z,47
2023-04-29T10:36:41.256Z,49
2023-04-29T10:37:55.400Z,52
2023-04-29T10:39:09.612Z,51
2023-04-29T10:40:23.760Z,44
2023-04-29T10:42:52.017Z,44
2023-04-29T10:44:06.087Z,46
2023-04-29T10:45:20.192Z,43
2023-04-29T10:47:48.573Z,44
2023-04-29T10:49:02.622Z,40
2023-04-29T10:50:16.743Z,47
2023-04-29T10:52:44.997Z,38
2023-04-29T10:53:59.138Z,44
2023-04-29T10:55:13.255Z,47
2023-04-29T10:57:41.513Z,41
2023-04-29T10:58:55.637Z,45
2023-04-29T11:00:09.832Z,47
2023-04-29T11:01:23.966Z,45
2023-04-29T11:03:52.388Z,48
2023-04-29T11:05:06.388Z,48
2023-04-29T11:06:20.457Z,49
2023-04-29T11:08:48.724Z,43
2023-04-29T11:10:02.870Z,50
2023-04-29T11:11:17.015Z,50
2023-04-29T11:13:45.259Z,50
2023-04-29T11:14:59.509Z,44
2023-04-29T11:16:13.608Z,47
2023-04-29T11:18:41.804Z,48
2023-04-29T11:19:56.262Z,45
2023-04-29T11:21:10.150Z,42
2023-04-29T11:22:24.229Z,41
2023-04-29T11:24:52.977Z,40
2023-04-29T11:26:06.658Z,39
2023-04-29T11:27:20.686Z,41
2023-04-29T11:29:48.972Z,38
2023-04-29T11:31:03.251Z,35
2023-04-29T11:32:17.285Z,39
2023-04-29T11:34:45.524Z,43
2023-04-29T11:35:59.674Z,39
2023-04-29T11:37:13.891Z,42
2023-04-29T11:39:42.058Z,44
2023-04-29T11:40:56.198Z,37
2023-04-29T11:42:10.281Z,37
2023-04-29T11:43:24.479Z,44
2023-04-29T11:45:52.785Z,49
2023-04-29T11:47:06.856Z,47
2023-04-29T11:48:20.985Z,48
2023-04-29T11:50:49.295Z,49
2023-04-29T11:52:03.403Z,51
2023-04-29T11:53:17.501Z,50
2023-04-29T11:55:45.810Z,57
2023-04-29T11:56:59.995Z,55
2023-04-29T11:58:14.129Z,49
2023-04-29T12:00:42.316Z,57
2023-04-29T12:01:56.428Z,58
2023-04-29T12:03:10.781Z,57
2023-04-29T12:04:24.997Z,54
2023-04-29T12:06:52.983Z,64
2023-04-29T12:08:07.357Z,65
2023-04-29T12:09:21.225Z,64
2023-04-29T12:11:49.514Z,66
2023-04-29T12:13:03.637Z,67
2023-04-29T12:14:17.777Z,67
2023-04-29T12:16:46.089Z,62
2023-04-29T12:18:00.216Z,64
2023-04-29T12:19:14.358Z,67
2023-04-29T12:21:42.637Z,65
2023-04-29T12:22:56.728Z,67
2023-04-29T12:24:10.857Z,65
2023-04-29T12:26:39.239Z,63
2023-04-29T12:27:53.253Z,63
2023-04-29T12:29:07.381Z,53
2023-04-29T12:30:21.496Z,55
2023-04-29T12:32:49.857Z,56
2023-04-29T12:34:04.781Z,59
2023-04-29T12:35:18.154Z,61
2023-04-29T12:37:46.318Z,60
2023-04-29T12:39:00.404Z,63
2023-04-29T12:40:14.630Z,61
2023-04-29T12:42:42.837Z,51
2023-04-29T12:43:56.984Z,55
2023-04-29T12:45:11.109Z,47
2023-04-29T12:46:25.300Z,45
2023-04-29T12:48:53.556Z,52
2023-04-29T12:50:07.644Z,51
2023-04-29T12:51:21.780Z,54
2023-04-29T12:53:50.048Z,57
2023-04-29T12:55:04.276Z,52
2023-04-29T12:56:18.305Z,53
2023-04-29T12:58:46.667Z,51
2023-04-29T13:00:00.690Z,44
2023-04-29T13:01:17.638Z,53
2023-04-29T13:03:43.340Z,54
2023-04-29T13:04:57.691Z,51
2023-04-29T13:06:11.344Z,49
2023-04-29T13:08:39.819Z,48
2023-04-29T13:09:53.964Z,45
2023-04-29T13:11:07.908Z,47
2023-04-29T13:12:22.035Z,52
2023-04-29T13:14:50.273Z,43
2023-04-29T13:16:04.470Z,51
2023-04-29T13:17:18.757Z,53
2023-04-29T13:19:51.793Z,47
2023-04-29T13:21:02.404Z,43
2023-04-29T13:22:15.080Z,51
2023-04-29T13:24:43.458Z,50
2023-04-29T13:25:57.493Z,51
2023-04-29T13:27:11.606Z,52
2023-04-29T13:29:40.011Z,40
2023-04-29T13:30:54.021Z,54
2023-04-29T13:32:08.238Z,42
2023-04-29T13:33:22.429Z,49
2023-04-29T13:35:50.537Z,47
2023-04-29T13:37:04.710Z,48
2023-04-29T13:38:18.818Z,47
2023-04-29T13:39:37.773Z,49
2023-04-29T13:40:48.958Z,46
2023-04-29T13:42:01.214Z,51
2023-04-29T13:43:21.021Z,49
2023-04-29T13:45:45.603Z,47
2023-04-29T13:46:57.894Z,44
2023-04-29T13:48:34.848Z,45
2023-04-29T13:52:47.110Z,45
2023-04-29T14:04:15.746Z,45
2023-04-29T14:06:43.932Z,42
2023-04-29T14:07:58.009Z,42
2023-04-29T14:09:12.165Z,41
2023-04-29T14:11:40.405Z,43
2023-04-29T14:12:54.606Z,41
2023-04-29T14:14:08.668Z,42
2023-04-29T14:15:22.908Z,44
2023-04-29T14:17:51.107Z,38
2023-04-29T14:19:05.220Z,42
2023-04-29T14:20:19.447Z,40
2023-04-29T14:22:47.615Z,42
2023-04-29T14:24:01.739Z,41
2023-04-29T14:25:16.013Z,40
2023-04-29T14:27:44.166Z,37
2023-04-29T14:28:58.293Z,41
2023-04-29T14:30:12.467Z,44
2023-04-29T14:32:40.726Z,41
2023-04-29T14:33:54.881Z,41
2023-04-29T14:35:08.954Z,44
2023-04-29T14:36:26.999Z,40
2023-04-29T14:38:51.362Z,38
2023-04-29T14:41:19.723Z,35
2023-04-29T14:43:47.927Z,40
2023-04-29T14:45:02.081Z,40
2023-04-29T14:46:16.219Z,38
2023-04-29T14:48:44.442Z,37
2023-04-29T14:49:58.596Z,39
2023-04-29T14:51:12.716Z,37
2023-04-29T14:53:40.961Z,37
2023-04-29T14:54:55.408Z,35
2023-04-29T14:56:09.276Z,40
2023-04-29T14:57:23.427Z,34
2023-04-29T14:59:51.644Z,35
2023-04-29T15:01:05.777Z,38
2023-04-29T15:02:20.016Z,38
2023-04-29T15:04:48.221Z,39
2023-04-29T15:06:02.297Z,38
2023-04-29T15:07:16.490Z,37
2023-04-29T15:09:44.790Z,38
2023-04-29T15:10:58.820Z,39
2023-04-29T15:12:13.016Z,37
2023-04-29T15:14:49.443Z,38
2023-04-29T15:16:03.575Z,37
2023-04-29T15:17:17.700Z,37
2023-04-29T15:19:46.100Z,40
2023-04-29T15:21:00.050Z,38
2023-04-29T15:22:14.340Z,38
2023-04-29T15:24:42.527Z,42
2023-04-29T15:25:56.600Z,37
2023-04-29T15:27:10.752Z,35
2023-04-29T15:28:25.013Z,39
2023-04-29T15:30:53.127Z,38
2023-04-29T15:32:07.464Z,38
2023-04-29T15:33:21.548Z,40
2023-04-29T15:35:49.779Z,42
2023-04-29T15:37:03.843Z,40
2023-04-29T15:38:17.945Z,41
2023-04-29T15:40:46.274Z,42
2023-04-29T15:42:00.415Z,41
2023-04-29T15:43:14.588Z,43
2023-04-29T15:45:42.876Z,37
2023-04-29T15:46:56.938Z,37
2023-04-29T15:48:11.016Z,41
2023-04-29T15:50:39.433Z,38
2023-04-29T15:51:53.441Z,41
2023-04-29T15:53:07.549Z,39
2023-04-29T15:54:21.703Z,38
2023-04-29T15:56:49.957Z,39
2023-04-29T15:58:04.085Z,38
2023-04-29T15:59:18.541Z,39
2023-04-29T16:01:46.598Z,41
2023-04-29T16:03:00.667Z,42
2023-04-29T16:04:14.768Z,40
2023-04-29T16:06:43.175Z,45
2023-04-29T16:07:57.154Z,46
2023-04-29T16:09:11.264Z,46
2023-04-29T16:11:39.726Z,44
2023-04-29T16:12:53.791Z,50
2023-04-29T16:14:07.838Z,46
2023-04-29T16:15:21.918Z,43
2023-04-29T16:17:50.255Z,45
2023-04-29T16:19:04.370Z,43
2023-04-29T16:20:18.454Z,47
2023-04-29T16:22:46.777Z,48
2023-04-29T16:24:00.865Z,43
2023-04-29T16:25:15.004Z,45
2023-04-29T16:27:43.324Z,44
2023-04-29T16:28:57.436Z,45
2023-04-29T16:30:11.527Z,44
2023-04-29T16:32:40.262Z,42
2023-04-29T16:33:53.985Z,42
2023-04-29T16:35:08.133Z,44
2023-04-29T16:36:22.213Z,41
2023-04-29T16:38:50.500Z,41
2023-04-29T16:40:04.592Z,46
2023-04-29T16:41:18.774Z,43
2023-04-29T16:43:47.060Z,46
2023-04-29T16:45:01.120Z,45
2023-04-29T16:46:15.356Z,43
2023-04-29T16:48:43.567Z,39
2023-04-29T16:49:57.683Z,40
2023-04-29T16:51:11.807Z,41
2023-04-29T16:53:40.200Z,34
2023-04-29T16:54:54.221Z,31
2023-04-29T16:56:08.373Z,36
2023-04-29T16:57:22.531Z,34
2023-04-29T16:59:50.720Z,34
2023-04-29T17:01:04.986Z,31
2023-04-29T17:02:19.015Z,31
2023-04-29T17:04:47.316Z,35
2023-04-29T17:06:01.390Z,33
2023-04-29T17:07:15.642Z,35
2023-04-29T17:09:43.900Z,30
2023-04-29T17:10:57.980Z,30
2023-04-29T17:12:12.100Z,30
2023-04-29T17:13:26.227Z,30
2023-04-29T17:14:40.532Z,29
2023-04-29T17:15:54.508Z,34
2023-04-29T17:17:08.602Z,32
2023-04-29T17:18:22.783Z,31
2023-04-29T17:20:51.370Z,30
2023-04-29T17:22:05.133Z,36
2023-04-29T17:23:19.293Z,33
2023-04-29T17:25:47.558Z,31
2023-04-29T17:27:01.738Z,30
2023-04-29T17:28:15.801Z,29
2023-04-29T17:30:44.081Z,30
2023-04-29T17:31:58.280Z,29
2023-04-29T17:33:12.383Z,29
2023-04-29T17:35:40.588Z,28
2023-04-29T17:36:54.747Z,30
2023-04-29T17:38:08.884Z,29
2023-04-29T17:39:22.993Z,24
2023-04-29T17:41:51.272Z,27
2023-04-29T17:43:05.468Z,31
2023-04-29T17:44:22.592Z,30
2023-04-29T17:46:47.802Z,29
2023-04-29T17:48:01.985Z,30
2023-04-29T17:49:16.094Z,32
2023-04-29T17:51:44.401Z,31
2023-04-29T17:52:58.773Z,31
2023-04-29T17:54:13.061Z,29
2023-04-29T17:56:40.859Z,29
2023-04-29T17:57:55.039Z,30
2023-04-29T17:59:09.504Z,33
2023-04-29T18:00:23.295Z,30
2023-04-29T18:02:52.229Z,30
2023-04-29T18:04:07.541Z,31
2023-04-29T18:05:19.958Z,32
2023-04-29T18:07:48.115Z,32
2023-04-29T18:09:02.230Z,29
2023-04-29T18:10:16.360Z,33
2023-04-29T18:12:44.624Z,35
2023-04-29T18:13:58.804Z,33
2023-04-29T18:15:12.894Z,34
2023-04-29T18:17:41.205Z,31
2023-04-29T18:18:56.902Z,32
2023-04-29T18:20:09.449Z,34
2023-04-29T18:21:23.591Z,30
2023-04-29T18:23:51.843Z,35
2023-04-29T18:25:06.024Z,33
2023-04-29T18:26:20.155Z,32
2023-04-29T18:28:48.356Z,30
2023-04-29T18:30:02.488Z,31
2023-04-29T18:31:16.638Z,31
2023-04-29T18:33:44.861Z,31
2023-04-29T18:34:59.012Z,37
2023-04-29T18:36:13.139Z,31
2023-04-29T18:38:41.396Z,30
2023-04-29T18:39:55.748Z,30
2023-04-29T18:41:09.692Z,31
2023-04-29T18:42:23.945Z,28
2023-04-29T18:44:52.102Z,31
2023-04-29T18:46:06.288Z,36
2023-04-29T18:47:20.498Z,34
2023-04-29T18:49:48.648Z,30
2023-04-29T18:51:02.824Z,32
2023-04-29T18:52:17.157Z,32
2023-04-29T18:54:45.202Z,37
2023-04-29T18:55:59.338Z,46
2023-04-29T18:57:13.495Z,71
2023-04-29T18:59:41.711Z,97
2023-04-29T19:00:55.884Z,107
2023-04-29T19:02:09.975Z,154
2023-04-29T19:03:24.144Z,144
2023-04-29T19:05:52.331Z,516
2023-04-29T19:07:06.481Z,801
2023-04-29T19:08:20.570Z,814
2023-04-29T19:10:48.885Z,368
2023-04-29T19:12:03.024Z,273
2023-04-29T19:13:17.130Z,178
2023-04-29T19:15:45.464Z,85
2023-04-29T19:16:59.581Z,129
2023-04-29T19:18:13.709Z,136
2023-04-29T19:20:41.945Z,111
2023-04-29T19:21:56.117Z,89
2023-04-29T19:23:10.173Z,86
2023-04-29T19:24:24.362Z,75
2023-04-29T19:26:52.673Z,72
2023-04-29T19:28:06.699Z,70
2023-04-29T19:29:20.965Z,68
2023-04-29T19:31:49.274Z,58
2023-04-29T19:33:03.370Z,57
2023-04-29T19:34:17.448Z,53
2023-04-29T19:36:45.779Z,47
2023-04-29T19:37:59.767Z,46
2023-04-29T19:39:13.999Z,45
2023-04-29T19:41:42.207Z,39
2023-04-29T19:42:56.333Z,46
2023-04-29T19:44:10.471Z,44
2023-04-29T19:45:24.653Z,40
2023-04-29T19:47:52.970Z,48
2023-04-29T19:49:07.018Z,41
2023-04-29T19:50:21.124Z,43
2023-04-29T19:52:49.433Z,39
2023-04-29T19:54:03.641Z,36
2023-04-29T19:55:17.678Z,37
2023-04-29T19:57:45.991Z,39
2023-04-29T19:59:00.116Z,42
2023-04-29T20:00:14.249Z,52
2023-04-29T20:02:42.584Z,49
2023-04-29T20:03:56.717Z,65
2023-04-29T20:05:10.770Z,77
2023-04-29T20:07:38.982Z,84
2023-04-29T20:08:53.284Z,60
2023-04-29T20:10:07.284Z,66
2023-04-29T20:11:21.383Z,59
2023-04-29T20:13:49.716Z,60
2023-04-29T20:15:03.934Z,56
2023-04-29T20:16:17.974Z,60
2023-04-29T20:18:46.274Z,56
2023-04-29T20:20:00.363Z,63
2023-04-29T20:21:14.542Z,57
2023-04-29T20:23:42.744Z,45
2023-04-29T20:24:56.926Z,43
2023-04-29T20:26:11.040Z,44
2023-04-29T20:27:25.186Z,48
2023-04-29T20:29:53.727Z,46
2023-04-29T20:31:07.535Z,43
2023-04-29T20:32:21.632Z,43
2023-04-29T20:34:49.947Z,44
2023-04-29T20:36:04.077Z,41
2023-04-29T20:37:18.170Z,40
2023-04-29T20:39:46.458Z,38
2023-04-29T20:41:00.576Z,38
2023-04-29T20:42:14.727Z,38
2023-04-29T20:44:43.020Z,36
2023-04-29T20:45:57.185Z,37
2023-04-29T20:47:11.347Z,39
2023-04-29T20:49:39.836Z,40
2023-04-29T20:50:53.776Z,42
2023-04-29T20:52:07.769Z,43
2023-04-29T20:53:21.952Z,43
2023-04-29T20:55:50.251Z,39
2023-04-29T20:57:04.383Z,42
2023-04-29T20:58:18.489Z,42
2023-04-29T21:00:46.838Z,39
2023-04-29T21:02:00.839Z,37
2023-04-29T21:03:15.019Z,41
2023-04-29T21:05:43.265Z,36
2023-04-29T21:06:57.419Z,37
2023-04-29T21:08:11.511Z,39
2023-04-29T21:10:40.156Z,40
2023-04-29T21:11:53.935Z,42
2023-04-29T21:13:08.091Z,48
2023-04-29T21:14:22.233Z,46
2023-04-29T21:16:50.398Z,47
2023-04-29T21:18:04.713Z,44
2023-04-29T21:19:18.752Z,49
2023-04-29T21:21:47.085Z,38
2023-04-29T21:23:01.141Z,38
2023-04-29T21:24:15.366Z,38
2023-04-29T21:26:43.593Z,41
2023-04-29T21:27:57.646Z,41
2023-04-29T21:29:11.878Z,44
2023-04-29T21:31:40.219Z,56
2023-04-29T21:32:54.347Z,69
2023-04-29T21:34:08.308Z,72
2023-04-29T21:35:22.475Z,57
2023-04-29T21:37:50.715Z,58
2023-04-29T21:39:04.939Z,58
2023-04-29T21:40:19.006Z,56
2023-04-29T21:42:47.262Z,46
2023-04-29T21:44:01.627Z,39
2023-04-29T21:45:15.564Z,44
2023-04-29T21:47:43.943Z,50
2023-04-29T21:48:57.984Z,49
2023-04-29T21:50:12.029Z,48
2023-04-29T21:51:26.521Z,54
2023-04-29T21:52:40.461Z,49
2023-04-29T21:53:54.475Z,51
2023-04-29T21:55:08.597Z,52
2023-04-29T21:56:22.802Z,49
2023-04-29T21:58:51.239Z,90
2023-04-29T22:00:05.139Z,85
2023-04-29T22:01:19.323Z,89
2023-04-29T22:03:47.529Z,63
2023-04-29T22:05:01.641Z,52
2023-04-29T22:06:15.821Z,56
2023-04-29T22:08:44.090Z,50
2023-04-29T22:09:58.204Z,51
2023-04-29T22:11:12.388Z,48
2023-04-29T22:13:40.584Z,41
2023-04-29T22:14:54.786Z,41
2023-04-29T22:16:08.848Z,42
2023-04-29T22:17:23.026Z,38
2023-04-29T22:19:51.356Z,42
2023-04-29T22:21:05.772Z,43
2023-04-29T22:22:19.618Z,36
2023-04-29T22:24:47.917Z,45
2023-04-29T22:26:01.847Z,46
2023-04-29T22:27:16.070Z,52
2023-04-29T22:29:44.361Z,46
2023-04-29T22:30:58.415Z,48
2023-04-29T22:32:12.679Z,51
2023-04-29T22:34:40.832Z,52
2023-04-29T22:35:54.956Z,59
2023-04-29T22:37:09.222Z,50
2023-04-29T22:38:23.282Z,51
2023-04-29T22:40:51.537Z,56
2023-04-29T22:42:05.654Z,47
2023-04-29T22:43:19.858Z,45
2023-04-29T22:45:48.047Z,44
2023-04-29T22:47:02.150Z,41
2023-04-29T22:48:16.357Z,45
2023-04-29T22:50:44.632Z,41
2023-04-29T22:51:58.714Z,43
2023-04-29T22:53:12.902Z,42
2023-04-29T22:55:41.055Z,44
2023-04-29T22:56:55.250Z,42
2023-04-29T22:58:09.404Z,49
2023-04-29T22:59:23.542Z,45
2023-04-29T23:01:51.784Z,47